Time;durP1;ratioP1;P1;durP2;ratioP2;P2;SDS_P1;SDS_P2;PMS_P1;PMS_P2;Temp;Humidity;BMP_temperature;BMP_pressure;BME280_temperature;BME280_humidity;BME280_pressure;Samples;Min_cycle;Max_cycle;Signal;HPM_P1;HPM_P2
2023/10/17 00:01:34;;;;;;;4.10;2.40;;;;;;;;;;5024398;28;20551;-78
2023/10/17 00:06:45;;;;;;;4.37;2.30;;;;;;;;;;5019404;28;20191;-79
2023/10/17 00:09:22;;;;;;;3.70;2.50;;;;;;;;;;5008708;28;20210;-78
2023/10/17 00:14:24;;;;;;;4.70;2.37;;;;;;;;;;5020096;28;20218;-78
2023/10/17 00:16:53;;;;;;;3.87;2.30;;;;;;;;;;5001750;28;20191;-78
2023/10/17 00:19:26;;;;;;;3.83;2.20;;;;;;;;;;5021414;28;20249;-78
2023/10/17 00:21:53;;;;;;;4.20;2.63;;;;;;;;;;5018628;28;20258;-78
2023/10/17 00:24:19;;;;;;;5.13;2.40;;;;;;;;;;5025024;28;20266;-78
2023/10/17 00:26:47;;;;;;;8.03;3.60;;;;;;;;;;5008104;28;20714;-78
2023/10/17 00:29:14;;;;;;;5.23;2.97;;;;;;;;;;5003601;28;20241;-78
2023/10/17 00:31:41;;;;;;;4.67;2.50;;;;;;;;;;5006433;28;20264;-78
2023/10/17 00:34:13;;;;;;;3.63;2.20;;;;;;;;;;4975269;28;20218;-78
2023/10/17 00:37:00;;;;;;;3.87;2.23;;;;;;;;;;5005097;28;20191;-78
2023/10/17 00:39:30;;;;;;;4.70;2.73;;;;;;;;;;5023075;28;20257;-78
2023/10/17 00:44:33;;;;;;;7.37;3.50;;;;;;;;;;5007543;28;20269;-78
2023/10/17 00:47:00;;;;;;;7.73;3.10;;;;;;;;;;5012494;28;20193;-78
2023/10/17 00:49:29;;;;;;;11.67;3.97;;;;;;;;;;5003748;28;20229;-78
2023/10/17 00:52:02;;;;;;;4.67;2.60;;;;;;;;;;5006482;28;20199;-78
2023/10/17 00:54:30;;;;;;;6.10;2.90;;;;;;;;;;5006246;28;20674;-78
2023/10/17 00:56:56;;;;;;;9.70;3.40;;;;;;;;;;5000754;28;20176;-78
2023/10/17 00:59:29;;;;;;;6.33;2.33;;;;;;;;;;5003963;28;20274;-78
2023/10/17 01:01:56;;;;;;;7.37;3.10;;;;;;;;;;5024201;28;20202;-78
2023/10/17 01:04:24;;;;;;;10.07;4.67;;;;;;;;;;5007097;28;20175;-78
2023/10/17 01:06:54;;;;;;;6.93;3.30;;;;;;;;;;5022257;28;20174;-78
2023/10/17 01:09:25;;;;;;;3.33;2.30;;;;;;;;;;5021170;28;20237;-78
2023/10/17 01:11:54;;;;;;;4.33;2.43;;;;;;;;;;5026159;28;20211;-78
2023/10/17 01:14:23;;;;;;;4.50;2.67;;;;;;;;;;5023769;28;20187;-78
2023/10/17 01:16:53;;;;;;;10.33;4.27;;;;;;;;;;4996538;28;20199;-78
2023/10/17 01:19:21;;;;;;;4.77;2.47;;;;;;;;;;5002188;28;20195;-78
2023/10/17 01:21:48;;;;;;;4.67;3.00;;;;;;;;;;5004954;28;20258;-78
2023/10/17 01:24:14;;;;;;;3.30;2.37;;;;;;;;;;5004903;28;20237;-78
2023/10/17 01:26:44;;;;;;;2.97;2.10;;;;;;;;;;5008739;28;20215;-78
2023/10/17 01:29:13;;;;;;;2.73;2.10;;;;;;;;;;5025770;28;20218;-78
2023/10/17 01:31:42;;;;;;;4.30;2.10;;;;;;;;;;5023027;28;20669;-78
2023/10/17 01:34:09;;;;;;;4.63;2.30;;;;;;;;;;5024026;28;20179;-78
2023/10/17 01:36:37;;;;;;;3.10;2.20;;;;;;;;;;5007202;28;20239;-78
2023/10/17 01:39:06;;;;;;;4.33;2.23;;;;;;;;;;5011905;28;20185;-78
2023/10/17 01:41:33;;;;;;;2.63;1.80;;;;;;;;;;5028077;28;20183;-79
2023/10/17 01:43:59;;;;;;;2.40;1.87;;;;;;;;;;5010688;28;20198;-78
2023/10/17 01:46:28;;;;;;;3.10;1.87;;;;;;;;;;5019021;28;20336;-78
2023/10/17 01:48:55;;;;;;;3.80;2.20;;;;;;;;;;5026574;28;20221;-78
2023/10/17 01:51:23;;;;;;;3.57;2.20;;;;;;;;;;5009134;28;20236;-78
2023/10/17 01:53:50;;;;;;;3.53;1.90;;;;;;;;;;5007180;28;20182;-78
2023/10/17 01:56:18;;;;;;;3.43;2.00;;;;;;;;;;5026110;28;20642;-78
2023/10/17 01:58:50;;;;;;;2.80;2.00;;;;;;;;;;5007746;28;20618;-78
2023/10/17 02:01:29;;;;;;;2.37;2.00;;;;;;;;;;4994796;28;20201;-78
2023/10/17 02:04:03;;;;;;;2.23;1.77;;;;;;;;;;5026485;28;20589;-78
2023/10/17 02:06:32;;;;;;;3.07;1.87;;;;;;;;;;5031259;28;20193;-78
2023/10/17 02:08:59;;;;;;;3.10;2.03;;;;;;;;;;4998819;28;20238;-78
2023/10/17 02:11:37;;;;;;;3.83;2.40;;;;;;;;;;5023667;28;20222;-78
2023/10/17 02:14:06;;;;;;;2.33;1.90;;;;;;;;;;5005385;28;20290;-78
2023/10/17 02:16:32;;;;;;;2.83;2.10;;;;;;;;;;5008160;28;20191;-78
2023/10/17 02:18:59;;;;;;;3.27;1.90;;;;;;;;;;5012459;28;20183;-78
2023/10/17 02:21:28;;;;;;;3.70;2.10;;;;;;;;;;5009560;28;20266;-78
2023/10/17 02:23:55;;;;;;;3.97;2.10;;;;;;;;;;4987083;28;20218;-78
2023/10/17 02:26:22;;;;;;;2.77;1.90;;;;;;;;;;5028189;28;20230;-78
2023/10/17 02:28:53;;;;;;;2.43;1.93;;;;;;;;;;5026921;28;20306;-78
2023/10/17 02:31:27;;;;;;;3.03;2.27;;;;;;;;;;5010664;28;20293;-78
2023/10/17 02:33:54;;;;;;;3.47;2.00;;;;;;;;;;5008637;28;20186;-78
2023/10/17 02:36:20;;;;;;;3.80;2.10;;;;;;;;;;5010271;28;20646;-78
2023/10/17 02:38:46;;;;;;;2.20;2.00;;;;;;;;;;5010021;28;20191;-78
2023/10/17 02:41:18;;;;;;;3.13;1.70;;;;;;;;;;5030252;28;20290;-78
2023/10/17 02:43:45;;;;;;;3.00;1.87;;;;;;;;;;5006932;28;20202;-78
2023/10/17 02:46:13;;;;;;;3.17;1.73;;;;;;;;;;5009078;28;20198;-78
2023/10/17 02:48:39;;;;;;;2.77;1.83;;;;;;;;;;4992638;28;20203;-78
2023/10/17 02:51:11;;;;;;;3.50;1.80;;;;;;;;;;4994209;28;20193;-78
2023/10/17 02:53:43;;;;;;;3.07;2.00;;;;;;;;;;5009894;28;20618;-79
2023/10/17 02:56:19;;;;;;;3.13;2.10;;;;;;;;;;5011402;28;20208;-78
2023/10/17 02:59:04;;;;;;;3.37;1.80;;;;;;;;;;5008966;28;20210;-78
2023/10/17 03:01:31;;;;;;;3.57;2.00;;;;;;;;;;5001741;28;20327;-78
2023/10/17 03:03:58;;;;;;;2.63;2.10;;;;;;;;;;5008178;28;20562;-79
2023/10/17 03:06:24;;;;;;;2.90;2.00;;;;;;;;;;5022472;28;20725;-78
2023/10/17 03:09:00;;;;;;;3.60;2.27;;;;;;;;;;5006070;28;20695;-78
2023/10/17 03:11:35;;;;;;;2.93;2.00;;;;;;;;;;5012918;28;20187;-78
2023/10/17 03:14:12;;;;;;;2.83;1.67;;;;;;;;;;5009637;28;20178;-78
2023/10/17 03:16:43;;;;;;;3.70;2.13;;;;;;;;;;5021723;28;20560;-78
2023/10/17 03:19:12;;;;;;;3.47;2.00;;;;;;;;;;5012653;28;20248;-78
2023/10/17 03:21:43;;;;;;;2.90;1.87;;;;;;;;;;5004916;28;20706;-78
2023/10/17 03:24:10;;;;;;;3.77;2.10;;;;;;;;;;5021500;28;20556;-78
2023/10/17 03:26:39;;;;;;;4.00;2.20;;;;;;;;;;5004882;28;20191;-78
2023/10/17 03:29:19;;;;;;;3.50;1.83;;;;;;;;;;5025478;28;20674;-78
2023/10/17 03:31:53;;;;;;;3.83;1.80;;;;;;;;;;4985644;28;20234;-78
2023/10/17 03:34:33;;;;;;;3.30;1.97;;;;;;;;;;5004391;28;20179;-78
2023/10/17 03:37:26;;;;;;;3.50;2.10;;;;;;;;;;5024670;28;20656;-78
2023/10/17 03:39:52;;;;;;;2.67;2.07;;;;;;;;;;5001724;28;20598;-78
2023/10/17 03:47:52;;;;;;;3.40;1.97;;;;;;;;;;5005620;28;20233;-78
2023/10/17 03:53:07;;;;;;;4.00;1.80;;;;;;;;;;5013141;28;20366;-78
2023/10/17 03:55:35;;;;;;;3.63;2.03;;;;;;;;;;5013696;28;20285;-78
2023/10/17 03:58:08;;;;;;;2.80;1.87;;;;;;;;;;5000628;28;20217;-78
2023/10/17 04:00:43;;;;;;;3.83;2.10;;;;;;;;;;5005927;28;20686;-79
2023/10/17 04:03:18;;;;;;;3.33;1.80;;;;;;;;;;4980997;28;20207;-78
2023/10/17 04:05:45;;;;;;;3.77;2.20;;;;;;;;;;5008900;28;20243;-78
2023/10/17 04:08:11;;;;;;;4.17;2.07;;;;;;;;;;5020067;28;20575;-78
2023/10/17 04:10:49;;;;;;;3.33;2.00;;;;;;;;;;5025896;28;20183;-79
2023/10/17 04:13:34;;;;;;;2.87;2.13;;;;;;;;;;5022701;28;20621;-78
2023/10/17 04:16:08;;;;;;;2.37;1.97;;;;;;;;;;5022150;28;20174;-78
2023/10/17 04:18:37;;;;;;;3.37;2.00;;;;;;;;;;5023609;28;20221;-78
2023/10/17 04:21:17;;;;;;;3.10;2.10;;;;;;;;;;4982894;28;20191;-78
2023/10/17 04:23:44;;;;;;;3.50;2.40;;;;;;;;;;4992873;28;20198;-78
2023/10/17 04:26:18;;;;;;;3.93;2.47;;;;;;;;;;5010862;28;20320;-78
2023/10/17 04:28:50;;;;;;;5.23;2.70;;;;;;;;;;5011434;28;20213;-78
2023/10/17 04:31:25;;;;;;;5.00;2.83;;;;;;;;;;5025985;28;20782;-78
2023/10/17 04:34:07;;;;;;;6.10;2.53;;;;;;;;;;5024927;28;20730;-78
2023/10/17 04:36:37;;;;;;;2.80;2.33;;;;;;;;;;5019702;28;20651;-78
2023/10/17 04:39:25;;;;;;;4.63;2.47;;;;;;;;;;5003480;28;20190;-78
2023/10/17 04:44:32;;;;;;;3.50;2.35;;;;;;;;;;5023929;28;20429;-78
2023/10/17 04:47:17;;;;;;;3.67;2.47;;;;;;;;;;5006710;28;20194;-78
2023/10/17 04:49:44;;;;;;;3.20;2.30;;;;;;;;;;5016833;28;20365;-79
2023/10/17 04:52:18;;;;;;;3.27;2.20;;;;;;;;;;5018857;28;20207;-78
2023/10/17 04:54:44;;;;;;;2.83;2.17;;;;;;;;;;5014276;28;20266;-78
2023/10/17 04:57:18;;;;;;;4.20;2.30;;;;;;;;;;5027138;28;20240;-78
2023/10/17 05:07:28;;;;;;;4.47;2.70;;;;;;;;;;5026377;28;20476;-78
2023/10/17 06:18:48;;;;;;;4.60;2.87;;;;;;;;;;5014246;28;20717;-78
2023/10/17 06:21:18;;;;;;;3.83;2.77;;;;;;;;;;4995418;28;20726;-78
2023/10/17 06:34:15;;;;;;;4.87;2.87;;;;;;;;;;5016179;28;20191;-78
2023/10/17 06:36:46;;;;;;;4.93;2.93;;;;;;;;;;5013933;28;20715;-78
2023/10/17 06:39:16;;;;;;;5.83;3.10;;;;;;;;;;5013835;28;20191;-79
2023/10/17 06:41:44;;;;;;;3.23;2.90;;;;;;;;;;5013402;28;20265;-78
2023/10/17 06:44:15;;;;;;;4.47;3.00;;;;;;;;;;5012594;28;20443;-76
2023/10/17 06:46:48;;;;;;;4.17;3.00;;;;;;;;;;5021087;28;20191;-76
2023/10/17 06:49:55;;;;;;;4.93;2.70;;;;;;;;;;5012768;28;20210;-75
2023/10/17 06:54:43;;;;;;;4.60;3.10;;;;;;;;;;5012799;28;20183;-77
2023/10/17 06:57:24;;;;;;;3.97;2.80;;;;;;;;;;5010377;28;20234;-76
2023/10/17 07:00:00;;;;;;;5.60;2.97;;;;;;;;;;5019129;28;20183;-76
2023/10/17 07:02:31;;;;;;;4.67;3.20;;;;;;;;;;5014984;28;20202;-76
2023/10/17 07:05:00;;;;;;;3.90;3.10;;;;;;;;;;5015826;28;20266;-76
2023/10/17 07:07:40;;;;;;;5.07;2.97;;;;;;;;;;5015307;28;20690;-76
2023/10/17 07:10:37;;;;;;;4.00;2.70;;;;;;;;;;5008102;28;20183;-76
2023/10/17 07:13:22;;;;;;;3.63;2.77;;;;;;;;;;4999909;28;20413;-76
2023/10/17 07:15:52;;;;;;;4.43;3.10;;;;;;;;;;5008653;28;20186;-77
2023/10/17 07:23:43;;;;;;;4.50;3.30;;;;;;;;;;5015368;28;20709;-76
2023/10/17 07:26:35;;;;;;;5.27;4.10;;;;;;;;;;4993167;28;20237;-76
2023/10/17 07:29:05;;;;;;;4.50;3.93;;;;;;;;;;4999886;28;20214;-76
2023/10/17 07:31:32;;;;;;;6.10;4.13;;;;;;;;;;5013945;28;20187;-75
2023/10/17 07:36:37;;;;;;;5.00;3.70;;;;;;;;;;5004494;28;20183;-77
2023/10/17 07:39:16;;;;;;;5.60;4.30;;;;;;;;;;4998517;28;20183;-76
2023/10/17 07:41:52;;;;;;;5.97;4.40;;;;;;;;;;5015523;28;20215;-76
2023/10/17 07:44:21;;;;;;;5.53;4.30;;;;;;;;;;5018104;28;20195;-77
2023/10/17 07:46:49;;;;;;;5.90;4.23;;;;;;;;;;5018778;28;20190;-76
2023/10/17 07:49:25;;;;;;;5.63;4.23;;;;;;;;;;5016885;28;20590;-76
2023/10/17 07:51:51;;;;;;;5.07;4.07;;;;;;;;;;5018538;28;20206;-76
2023/10/17 07:54:18;;;;;;;5.93;4.10;;;;;;;;;;5015574;28;20270;-76
2023/10/17 07:56:50;;;;;;;5.33;4.40;;;;;;;;;;5013521;28;20647;-76
2023/10/17 07:59:30;;;;;;;5.67;3.73;;;;;;;;;;5016920;28;20206;-76
2023/10/17 08:02:00;;;;;;;6.10;4.30;;;;;;;;;;5021849;28;20568;-77
2023/10/17 08:04:30;;;;;;;5.43;4.17;;;;;;;;;;5020674;28;20193;-76
2023/10/17 08:06:56;;;;;;;5.27;4.10;;;;;;;;;;5017116;28;20194;-77
2023/10/17 08:11:53;;;;;;;5.30;4.50;;;;;;;;;;5017923;28;20210;-78
2023/10/17 08:14:22;;;;;;;6.13;4.00;;;;;;;;;;5015201;28;20185;-77
2023/10/17 08:16:54;;;;;;;6.57;4.13;;;;;;;;;;5023735;28;20266;-77
2023/10/17 08:19:22;;;;;;;5.87;4.10;;;;;;;;;;5001112;28;20183;-76
2023/10/17 08:21:49;;;;;;;7.67;4.60;;;;;;;;;;5025316;28;20236;-77
2023/10/17 08:24:25;;;;;;;5.37;4.40;;;;;;;;;;5015060;28;20183;-77
2023/10/17 08:27:13;;;;;;;6.50;4.80;;;;;;;;;;5012061;28;20218;-77
2023/10/17 08:29:38;;;;;;;6.90;4.63;;;;;;;;;;5012578;28;21563;-77
2023/10/17 08:32:34;;;;;;;5.33;4.20;;;;;;;;;;5016281;28;20202;-77
2023/10/17 08:35:08;;;;;;;6.20;4.60;;;;;;;;;;5018469;28;20815;-76
2023/10/17 08:37:43;;;;;;;5.70;4.10;;;;;;;;;;5012568;28;20262;-76
2023/10/17 08:43:00;;;;;;;4.77;4.10;;;;;;;;;;5019575;28;20219;-77
2023/10/17 08:45:27;;;;;;;6.17;4.43;;;;;;;;;;5018181;28;20746;-76
2023/10/17 08:48:00;;;;;;;5.27;4.60;;;;;;;;;;5021828;28;20217;-77
2023/10/17 08:50:27;;;;;;;5.47;4.50;;;;;;;;;;5019072;28;20183;-77
2023/10/17 08:52:54;;;;;;;6.57;4.90;;;;;;;;;;5023808;28;20234;-76
2023/10/17 08:55:22;;;;;;;5.73;4.43;;;;;;;;;;5023589;28;20183;-77
2023/10/17 08:57:50;;;;;;;7.10;4.43;;;;;;;;;;5027956;28;20195;-76
2023/10/17 09:00:39;;;;;;;5.40;4.40;;;;;;;;;;4997908;28;20183;-77
2023/10/17 09:03:09;;;;;;;7.33;4.63;;;;;;;;;;5019093;28;20206;-77
2023/10/17 09:05:58;;;;;;;6.97;4.80;;;;;;;;;;5024300;28;20183;-76
2023/10/17 09:08:42;;;;;;;6.00;4.80;;;;;;;;;;4999393;28;20702;-77
2023/10/17 09:11:08;;;;;;;7.10;5.07;;;;;;;;;;4999790;28;20261;-77
2023/10/17 09:14:10;;;;;;;7.27;4.93;;;;;;;;;;5028821;28;20206;-77
2023/10/17 09:16:34;;;;;;;6.90;4.93;;;;;;;;;;5022198;28;20191;-77
2023/10/17 09:19:10;;;;;;;5.37;4.83;;;;;;;;;;5024774;28;20182;-77
2023/10/17 09:21:41;;;;;;;8.30;5.50;;;;;;;;;;5020367;28;20210;-77
2023/10/17 09:24:32;;;;;;;7.30;5.07;;;;;;;;;;5019641;28;20187;-77
2023/10/17 09:26:58;;;;;;;6.37;5.10;;;;;;;;;;5025215;28;20669;-77
2023/10/17 09:29:27;;;;;;;8.20;4.87;;;;;;;;;;5005502;28;20352;-77
2023/10/17 09:31:54;;;;;;;7.37;5.00;;;;;;;;;;5021566;28;20234;-76
2023/10/17 09:34:25;;;;;;;6.47;4.90;;;;;;;;;;5022318;28;20241;-77
2023/10/17 09:36:52;;;;;;;8.83;4.63;;;;;;;;;;5009735;28;20189;-77
2023/10/17 09:39:25;;;;;;;6.47;4.93;;;;;;;;;;5016022;28;20651;-76
2023/10/17 09:41:51;;;;;;;8.10;4.87;;;;;;;;;;5021540;28;20199;-77
2023/10/17 09:44:17;;;;;;;6.73;4.63;;;;;;;;;;5016073;28;20216;-77
2023/10/17 09:46:47;;;;;;;7.40;4.90;;;;;;;;;;5019730;28;20548;-77
2023/10/17 09:49:16;;;;;;;6.37;4.73;;;;;;;;;;5016817;28;20674;-75
2023/10/17 09:51:45;;;;;;;8.73;5.33;;;;;;;;;;5019150;28;20203;-77
2023/10/17 09:54:11;;;;;;;6.53;5.00;;;;;;;;;;5002025;28;20194;-76
2023/10/17 09:56:40;;;;;;;5.87;4.90;;;;;;;;;;5018508;28;20180;-76
2023/10/17 09:59:11;;;;;;;6.73;5.03;;;;;;;;;;5003002;28;20194;-77
2023/10/17 10:01:39;;;;;;;5.53;4.87;;;;;;;;;;5021319;28;20190;-77
2023/10/17 10:04:07;;;;;;;7.00;4.80;;;;;;;;;;5003125;28;20197;-77
2023/10/17 10:06:34;;;;;;;5.87;4.60;;;;;;;;;;5022914;28;20677;-77
2023/10/17 10:09:13;;;;;;;6.27;5.10;;;;;;;;;;5024780;28;20228;-76
2023/10/17 10:12:01;;;;;;;7.17;4.83;;;;;;;;;;5019409;28;20329;-77
2023/10/17 10:14:27;;;;;;;8.03;4.77;;;;;;;;;;5022823;28;20665;-77
2023/10/17 10:16:54;;;;;;;6.00;4.50;;;;;;;;;;5018022;28;20190;-77
2023/10/17 10:19:24;;;;;;;7.23;4.57;;;;;;;;;;5022287;28;20195;-77
2023/10/17 10:21:54;;;;;;;5.40;4.40;;;;;;;;;;5025403;28;20281;-77
2023/10/17 10:24:26;;;;;;;5.87;4.23;;;;;;;;;;5019455;28;20253;-76
2023/10/17 10:27:14;;;;;;;5.17;4.20;;;;;;;;;;5020632;28;20179;-77
2023/10/17 10:29:41;;;;;;;5.60;4.43;;;;;;;;;;5021087;28;20197;-76
2023/10/17 10:32:27;;;;;;;5.70;4.20;;;;;;;;;;5024187;28;20199;-77
2023/10/17 10:34:54;;;;;;;5.83;4.23;;;;;;;;;;5018874;28;20190;-76
2023/10/17 10:37:21;;;;;;;5.83;4.50;;;;;;;;;;5022145;28;20211;-76
2023/10/17 10:40:10;;;;;;;6.07;4.43;;;;;;;;;;5023677;28;20673;-76
2023/10/17 10:42:44;;;;;;;6.37;4.90;;;;;;;;;;5017580;28;20616;-76
2023/10/17 10:45:25;;;;;;;5.33;4.27;;;;;;;;;;5002891;28;20197;-77
2023/10/17 10:47:58;;;;;;;6.37;4.13;;;;;;;;;;5018321;28;20250;-77
2023/10/17 10:50:31;;;;;;;5.30;4.03;;;;;;;;;;5019387;28;20244;-77
2023/10/17 10:52:59;;;;;;;6.57;4.07;;;;;;;;;;5006006;28;20663;-77
2023/10/17 10:55:26;;;;;;;6.67;4.47;;;;;;;;;;5018714;28;20183;-77
2023/10/17 10:57:53;;;;;;;4.53;3.63;;;;;;;;;;5023259;28;20224;-76
2023/10/17 11:00:19;;;;;;;6.17;4.20;;;;;;;;;;5019016;28;20239;-77
2023/10/17 11:02:46;;;;;;;6.40;4.13;;;;;;;;;;5021473;28;20205;-77
2023/10/17 11:05:15;;;;;;;6.23;4.50;;;;;;;;;;5023490;28;20189;-77
2023/10/17 11:07:42;;;;;;;4.80;3.80;;;;;;;;;;5002289;28;20584;-77
2023/10/17 11:10:10;;;;;;;4.67;3.73;;;;;;;;;;5003004;28;20182;-77
2023/10/17 11:12:37;;;;;;;6.17;3.77;;;;;;;;;;5017792;28;20207;-77
2023/10/17 11:15:12;;;;;;;4.80;3.70;;;;;;;;;;5004219;28;20561;-77
2023/10/17 11:17:39;;;;;;;4.83;3.80;;;;;;;;;;5019104;28;20194;-77
2023/10/17 11:20:14;;;;;;;6.40;3.80;;;;;;;;;;5016330;28;20194;-77
2023/10/17 11:22:44;;;;;;;4.43;3.53;;;;;;;;;;5018339;28;20288;-77
2023/10/17 11:25:21;;;;;;;5.43;4.27;;;;;;;;;;5004356;28;20200;-77
2023/10/17 11:28:00;;;;;;;5.83;3.97;;;;;;;;;;5016886;28;20210;-76
2023/10/17 11:30:33;;;;;;;5.63;3.63;;;;;;;;;;5016241;28;20186;-77
2023/10/17 11:33:05;;;;;;;4.13;3.47;;;;;;;;;;5020690;28;20207;-77
2023/10/17 11:35:35;;;;;;;5.67;3.40;;;;;;;;;;5024110;28;20182;-76
2023/10/17 11:38:02;;;;;;;6.23;3.83;;;;;;;;;;4986797;28;20434;-77
2023/10/17 11:40:43;;;;;;;6.23;3.90;;;;;;;;;;5003694;28;20674;-77
2023/10/17 11:43:16;;;;;;;4.33;3.77;;;;;;;;;;5019717;28;20225;-77
2023/10/17 11:45:43;;;;;;;7.23;4.33;;;;;;;;;;5021447;28;20222;-77
2023/10/17 11:48:39;;;;;;;5.80;3.53;;;;;;;;;;5022410;28;20203;-77
2023/10/17 11:51:13;;;;;;;5.63;3.80;;;;;;;;;;4999146;28;20194;-75
2023/10/17 11:53:58;;;;;;;4.10;3.70;;;;;;;;;;5018819;28;20925;-77
2023/10/17 11:56:26;;;;;;;5.00;3.80;;;;;;;;;;5015528;28;20695;-76
2023/10/17 11:58:52;;;;;;;5.80;3.30;;;;;;;;;;5019661;28;20196;-76
2023/10/17 12:01:18;;;;;;;5.27;3.90;;;;;;;;;;5006903;28;20269;-77
2023/10/17 12:03:45;;;;;;;5.50;3.30;;;;;;;;;;5015589;28;20203;-77
2023/10/17 12:06:17;;;;;;;4.97;3.40;;;;;;;;;;5022458;28;20182;-77
2023/10/17 12:08:43;;;;;;;4.87;3.10;;;;;;;;;;5021124;28;20280;-77
2023/10/17 12:11:10;;;;;;;4.40;3.20;;;;;;;;;;5018455;28;20728;-80
2023/10/17 12:13:37;;;;;;;7.30;3.53;;;;;;;;;;5004371;28;20221;-79
2023/10/17 12:16:08;;;;;;;4.77;3.33;;;;;;;;;;5000500;28;20694;-80
2023/10/17 12:18:35;;;;;;;5.77;3.30;;;;;;;;;;4995727;28;20242;-79
2023/10/17 12:21:04;;;;;;;3.33;3.00;;;;;;;;;;5021922;28;20211;-82
2023/10/17 12:23:30;;;;;;;4.10;3.63;;;;;;;;;;4972008;28;20256;-85
2023/10/17 12:26:19;;;;;;;3.57;3.07;;;;;;;;;;4984040;28;20191;-84
2023/10/17 12:28:46;;;;;;;5.57;4.23;;;;;;;;;;5019672;28;20215;-84
2023/10/17 12:31:16;;;;;;;5.50;3.57;;;;;;;;;;5005966;28;20190;-82
2023/10/17 12:33:43;;;;;;;5.27;3.37;;;;;;;;;;5012172;28;20229;-83
2023/10/17 12:36:10;;;;;;;3.80;3.07;;;;;;;;;;4991992;28;20214;-83
2023/10/17 12:38:36;;;;;;;5.60;3.60;;;;;;;;;;5003586;28;20273;-83
2023/10/17 12:41:06;;;;;;;5.70;3.83;;;;;;;;;;4991148;28;20199;-83
2023/10/17 12:43:36;;;;;;;5.87;4.07;;;;;;;;;;4986382;28;20218;-83
2023/10/17 12:46:02;;;;;;;3.60;3.00;;;;;;;;;;5022963;28;20694;-83
2023/10/17 12:48:28;;;;;;;4.47;3.50;;;;;;;;;;5020530;28;20532;-83
2023/10/17 12:50:55;;;;;;;4.97;3.40;;;;;;;;;;4999885;28;20187;-82
2023/10/17 12:53:21;;;;;;;4.63;3.50;;;;;;;;;;5019996;28;20747;-83
2023/10/17 12:55:47;;;;;;;6.07;3.30;;;;;;;;;;5008596;28;20250;-82
2023/10/17 12:58:18;;;;;;;4.77;3.70;;;;;;;;;;5008657;28;20190;-82
2023/10/17 13:00:47;;;;;;;6.27;3.83;;;;;;;;;;5017752;28;20632;-83
2023/10/17 13:03:14;;;;;;;4.57;3.60;;;;;;;;;;5003297;28;20268;-82
2023/10/17 13:05:40;;;;;;;9.93;6.13;;;;;;;;;;4988058;28;20199;-82
2023/10/17 13:08:07;;;;;;;5.17;4.37;;;;;;;;;;5009871;28;20313;-83
2023/10/17 13:10:33;;;;;;;7.03;3.40;;;;;;;;;;5013845;28;20242;-82
2023/10/17 13:12:59;;;;;;;4.83;3.30;;;;;;;;;;4990738;28;20286;-83
2023/10/17 13:15:26;;;;;;;4.93;3.80;;;;;;;;;;5023862;28;20655;-84
2023/10/17 13:17:55;;;;;;;4.93;3.60;;;;;;;;;;4983903;28;20558;-83
2023/10/17 13:20:28;;;;;;;3.97;3.17;;;;;;;;;;4989575;28;20205;-83
2023/10/17 13:22:55;;;;;;;4.33;3.10;;;;;;;;;;5022298;28;20215;-83
2023/10/17 13:25:22;;;;;;;6.60;3.80;;;;;;;;;;5019708;28;20186;-83
2023/10/17 13:27:48;;;;;;;4.43;3.30;;;;;;;;;;4971217;28;20695;-84
2023/10/17 13:30:14;;;;;;;6.60;5.03;;;;;;;;;;4992613;28;20226;-83
2023/10/17 13:32:40;;;;;;;6.60;3.70;;;;;;;;;;5007291;28;20217;-83
2023/10/17 13:35:07;;;;;;;4.80;3.53;;;;;;;;;;5008490;28;20566;-83
2023/10/17 13:37:34;;;;;;;5.13;3.40;;;;;;;;;;5024870;28;20278;-82
2023/10/17 13:40:01;;;;;;;5.20;3.63;;;;;;;;;;5005725;28;20526;-83
2023/10/17 13:42:27;;;;;;;3.83;3.20;;;;;;;;;;5002771;28;20211;-84
2023/10/17 13:44:54;;;;;;;5.20;3.50;;;;;;;;;;5026236;28;20202;-83
2023/10/17 13:47:21;;;;;;;4.67;3.60;;;;;;;;;;5026545;28;20201;-84
2023/10/17 13:49:47;;;;;;;4.20;3.30;;;;;;;;;;4975763;28;20200;-82
2023/10/17 13:52:17;;;;;;;4.27;3.20;;;;;;;;;;5027932;28;20206;-83
2023/10/17 13:54:44;;;;;;;5.40;3.60;;;;;;;;;;5026133;28;20195;-83
2023/10/17 13:57:12;;;;;;;3.30;3.00;;;;;;;;;;5007761;28;20186;-83
2023/10/17 13:59:38;;;;;;;3.70;2.90;;;;;;;;;;4992324;28;20190;-83
2023/10/17 14:02:08;;;;;;;3.87;2.90;;;;;;;;;;5027642;28;20214;-85
2023/10/17 14:04:38;;;;;;;4.00;2.83;;;;;;;;;;5004066;28;20206;-83
2023/10/17 14:07:05;;;;;;;4.53;3.20;;;;;;;;;;4992701;28;20290;-83
2023/10/17 14:09:31;;;;;;;4.13;3.20;;;;;;;;;;5009052;28;20217;-83
2023/10/17 14:11:58;;;;;;;3.83;2.73;;;;;;;;;;5024779;28;20297;-83
2023/10/17 14:14:25;;;;;;;6.43;3.17;;;;;;;;;;5027555;28;20194;-83
2023/10/17 14:16:52;;;;;;;4.70;3.30;;;;;;;;;;5009128;28;20191;-83
2023/10/17 14:19:30;;;;;;;4.10;2.90;;;;;;;;;;5008149;28;20202;-83
2023/10/17 14:24:49;;;;;;;4.03;2.90;;;;;;;;;;5008768;28;20222;-84
2023/10/17 14:27:29;;;;;;;3.00;2.70;;;;;;;;;;5023575;28;20190;-82
2023/10/17 14:29:59;;;;;;;4.63;3.13;;;;;;;;;;5023864;28;20270;-82
2023/10/17 14:32:29;;;;;;;3.37;2.90;;;;;;;;;;5007829;28;20280;-83
2023/10/17 14:34:58;;;;;;;4.67;3.13;;;;;;;;;;5006361;28;20186;-83
2023/10/17 14:37:27;;;;;;;4.03;3.00;;;;;;;;;;4977322;28;20190;-83
2023/10/17 14:39:54;;;;;;;9.57;3.03;;;;;;;;;;5004544;28;20197;-83
2023/10/17 14:42:20;;;;;;;4.00;3.27;;;;;;;;;;5022960;28;20265;-81
2023/10/17 14:44:49;;;;;;;4.90;3.10;;;;;;;;;;5019154;28;20195;-80
2023/10/17 14:47:17;;;;;;;3.80;2.90;;;;;;;;;;4992412;28;20189;-83
2023/10/17 14:49:46;;;;;;;5.70;2.97;;;;;;;;;;4986586;28;20309;-82
2023/10/17 14:52:13;;;;;;;3.40;2.97;;;;;;;;;;5005834;28;20406;-87
2023/10/17 14:54:40;;;;;;;3.97;3.23;;;;;;;;;;4976807;28;20180;-84
2023/10/17 14:57:07;;;;;;;5.50;3.20;;;;;;;;;;5031153;28;20218;-87
2023/10/17 14:59:40;;;;;;;4.83;3.30;;;;;;;;;;4997708;28;20674;-84
2023/10/17 15:02:07;;;;;;;4.43;3.17;;;;;;;;;;4995885;28;20206;-85
2023/10/17 15:04:35;;;;;;;3.60;2.63;;;;;;;;;;4985857;28;20240;-86
2023/10/17 15:07:03;;;;;;;5.47;4.10;;;;;;;;;;4976719;28;20175;-84
2023/10/17 15:09:29;;;;;;;4.57;3.47;;;;;;;;;;5004982;28;20470;-86
2023/10/17 15:11:56;;;;;;;3.07;2.77;;;;;;;;;;4999188;28;20199;-85
2023/10/17 15:14:22;;;;;;;4.93;3.17;;;;;;;;;;5006513;28;20188;-86
2023/10/17 15:16:49;;;;;;;4.40;3.23;;;;;;;;;;5012129;28;20205;-86
2023/10/17 15:19:15;;;;;;;6.57;3.20;;;;;;;;;;4992190;28;20277;-84
2023/10/17 15:21:41;;;;;;;4.90;3.20;;;;;;;;;;5014387;28;20185;-85
2023/10/17 15:24:12;;;;;;;8.57;3.20;;;;;;;;;;4985481;28;20222;-85
2023/10/17 15:26:39;;;;;;;6.97;3.30;;;;;;;;;;4983097;28;20629;-85
2023/10/17 15:29:05;;;;;;;4.27;3.23;;;;;;;;;;5003983;28;20222;-86
2023/10/17 15:31:31;;;;;;;4.63;2.80;;;;;;;;;;4977902;28;20214;-86
2023/10/17 15:33:59;;;;;;;4.23;2.93;;;;;;;;;;4965835;28;20187;-85
2023/10/17 15:36:25;;;;;;;3.30;2.97;;;;;;;;;;4987539;28;20183;-85
2023/10/17 15:38:52;;;;;;;3.87;2.70;;;;;;;;;;4961812;28;20322;-85
2023/10/17 15:41:20;;;;;;;3.27;2.97;;;;;;;;;;4985045;28;20210;-85
2023/10/17 15:43:47;;;;;;;3.20;2.50;;;;;;;;;;4963360;28;20277;-86
2023/10/17 15:46:14;;;;;;;5.70;3.20;;;;;;;;;;5000490;28;20198;-86
2023/10/17 15:48:42;;;;;;;3.23;2.90;;;;;;;;;;4968413;28;20229;-85
2023/10/17 15:51:08;;;;;;;4.13;3.13;;;;;;;;;;4990481;28;20175;-85
2023/10/17 15:53:35;;;;;;;3.53;2.70;;;;;;;;;;4988163;28;20231;-85
2023/10/17 15:56:02;;;;;;;4.00;2.90;;;;;;;;;;4986912;28;20179;-85
2023/10/17 15:58:29;;;;;;;4.87;3.10;;;;;;;;;;5001971;28;20187;-85
2023/10/17 16:00:56;;;;;;;4.97;3.30;;;;;;;;;;4986827;28;20190;-85
2023/10/17 16:03:29;;;;;;;5.97;3.10;;;;;;;;;;5002871;28;20254;-85
2023/10/17 16:05:55;;;;;;;5.47;3.03;;;;;;;;;;4978020;28;20782;-85
2023/10/17 16:08:23;;;;;;;6.53;3.37;;;;;;;;;;4988860;28;20258;-85
2023/10/17 16:10:53;;;;;;;12.17;5.57;;;;;;;;;;5004001;28;20179;-85
2023/10/17 16:13:23;;;;;;;9.80;4.97;;;;;;;;;;5022189;28;20203;-85
2023/10/17 16:15:56;;;;;;;4.93;3.30;;;;;;;;;;4991171;28;20190;-85
2023/10/17 16:18:22;;;;;;;4.60;2.80;;;;;;;;;;5021871;28;20190;-85
2023/10/17 16:20:48;;;;;;;5.90;3.20;;;;;;;;;;4989476;28;20178;-85
2023/10/17 16:23:14;;;;;;;2.97;2.67;;;;;;;;;;5020924;28;20206;-85
2023/10/17 16:25:46;;;;;;;3.67;2.80;;;;;;;;;;4989401;28;20759;-85
2023/10/17 16:28:12;;;;;;;6.70;3.43;;;;;;;;;;4993094;28;20218;-87
2023/10/17 16:30:40;;;;;;;3.33;2.53;;;;;;;;;;4981829;28;20265;-86
2023/10/17 16:33:08;;;;;;;3.90;2.83;;;;;;;;;;4982266;28;20586;-82
2023/10/17 16:35:36;;;;;;;11.17;5.63;;;;;;;;;;4994678;28;20183;-81
2023/10/17 16:38:05;;;;;;;12.37;5.07;;;;;;;;;;5002271;28;20626;-85
2023/10/17 16:40:31;;;;;;;7.53;4.27;;;;;;;;;;4974758;28;20196;-81
2023/10/17 16:42:57;;;;;;;5.90;3.60;;;;;;;;;;4975023;28;20203;-87
2023/10/17 16:45:24;;;;;;;4.07;3.00;;;;;;;;;;4973025;28;20290;-78
2023/10/17 16:47:50;;;;;;;4.93;3.60;;;;;;;;;;5008300;28;20353;-78
2023/10/17 16:50:17;;;;;;;6.00;3.70;;;;;;;;;;4991653;28;20190;-81
2023/10/17 16:52:44;;;;;;;4.97;3.50;;;;;;;;;;4989805;28;20233;-83
2023/10/17 16:55:13;;;;;;;6.30;4.20;;;;;;;;;;4984601;28;20555;-83
2023/10/17 16:57:39;;;;;;;3.37;2.80;;;;;;;;;;5010922;28;20273;-81
2023/10/17 17:00:12;;;;;;;3.33;2.97;;;;;;;;;;5010567;28;20226;-78
2023/10/17 17:02:39;;;;;;;9.27;7.50;;;;;;;;;;5013144;28;20210;-79
2023/10/17 17:05:09;;;;;;;5.87;5.20;;;;;;;;;;5008335;28;20214;-78
2023/10/17 17:07:36;;;;;;;5.67;4.03;;;;;;;;;;4994268;28;20625;-78